Huvudsida
METAR-TAF:

METAR-TAF

Flygplatser :

Kuwaits internationella flygplats

Kuwait, Kuwait

latitud: 29-13N, longitud: 047-59E, höjd: 55 m

Aktuellt väderrapport

Denna rapport gjordes för 49 minuter sedan, klockan 20:00 UTC
Vind 12 kt från nordväst
Temperatur 19°C
Fuktighet 83%
Tryck 1020 hPa
Sikt 10 km eller mer
Inga moln under 1 500 m eller inga cumulonimbus

METAR: OKBK 162000Z 32012KT CAVOK 19/16 Q1020 NOSIG

Tid: 23:49 (20:49 UTC)

Väderprognos

Denna rapport gjordes för 4 timmar och 4 minuter sedan, klockan 16:45 UTC
Prognos gäller från 16 kl. 18 UTC till 17 kl. 24 UTC
Vind 10 kt från nord
Sikt: 7000 m
Temporärt
från 16 kl. 21 UTC till 17 kl. 03 UTC
Vind 3 kt varierande vindriktning
Sikt: 2000 m
fuktdis

TAF: OKBK 161645Z 1618/1724 35010KT 7000 NSC TEMPO 1621/1703 VRB03KT 2000 BR

Aktuella väderrapporter och prognoser från 4000 flygplatser (METAR- och TAF-rapporter).

De tillgängliga stationerna syns som gula och röda prickar på kartan.

För musen över prickarna för att se namnen på stationerna.

Klicka sedan för att få väderrapporter och prognoser.

För att ändra kartan: Klicka på de gröna knapparna med ett svart kors på för att zooma in; den gröna knappen med ett streck på för att zooma ut; eller på de gröna pilarna för angränsande kartor.


METAR-TAF: